Highland Park, Illinois
Current Conditions -  °F | °C
As of 8:52 AM on Saturday 20 Dec 2014 (Local Time) from KPWK Reporting Station
Overcast Overcast  
Wind Chill: 30°   Ceiling: 7000
Heat Index: 30°   Visibility: 7mi
Dew Point: 23°   Wind: 0mph
Humidity: 75%   Direction: NA
Pressure: 30.29"   Gusts: NA
Location:  42.19°N, 87.8°W
Report Text: KPWK 201452Z 00000KT 7SM OVC070 M01/M05 A3029 RMK AO2 SLP267 T10111050 53002
Loading
Personal Weather Stations






























Interactive Weather Map New forecast layout! Learn more

10-Day Weather Forecast

Advertisements
Track Severe Weather on mobile